createdAt,value
2018-05-02T00:01:44.851Z,10.97
2018-05-02T00:04:12.988Z,10.79
2018-05-02T00:06:41.120Z,10.73
2018-05-02T00:09:09.229Z,10.86
2018-05-02T00:11:37.345Z,10.83
2018-05-02T00:14:05.477Z,10.81
2018-05-02T00:16:33.590Z,10.73
2018-05-02T00:19:01.723Z,10.69
2018-05-02T00:21:29.827Z,10.74
2018-05-02T00:23:57.955Z,10.40
2018-05-02T00:26:26.066Z,10.53
2018-05-02T00:28:54.196Z,10.56
2018-05-02T00:31:22.308Z,10.58
2018-05-02T00:33:50.410Z,10.65
2018-05-02T00:36:18.722Z,10.66
2018-05-02T00:38:46.859Z,10.55
2018-05-02T00:41:14.983Z,10.55
2018-05-02T00:43:43.123Z,10.54
2018-05-02T00:46:11.238Z,10.55
2018-05-02T00:48:51.245Z,10.47
2018-05-02T00:51:19.308Z,10.55
2018-05-02T00:53:47.421Z,10.47
2018-05-02T00:56:15.558Z,10.49
2018-05-02T00:58:43.723Z,10.44
2018-05-02T01:01:11.819Z,10.43
2018-05-02T01:03:40.114Z,10.43
2018-05-02T01:06:08.247Z,10.37
2018-05-02T01:08:36.361Z,10.23
2018-05-02T01:11:04.489Z,10.15
2018-05-02T01:13:32.609Z,10.14
2018-05-02T01:16:00.730Z,10.14
2018-05-02T01:18:29.141Z,10.14
2018-05-02T01:20:57.272Z,10.26
2018-05-02T01:23:25.377Z,10.35
2018-05-02T01:25:53.489Z,10.34
2018-05-02T01:28:21.609Z,10.19
2018-05-02T01:30:49.720Z,10.11
2018-05-02T01:33:17.853Z,10.20
2018-05-02T01:35:45.977Z,10.14
2018-05-02T01:38:14.081Z,10.09
2018-05-02T01:40:42.425Z,9.90
2018-05-02T01:43:10.547Z,9.78
2018-05-02T01:45:38.674Z,9.89
2018-05-02T01:48:06.805Z,9.96
2018-05-02T01:50:34.907Z,10.04
2018-05-02T01:53:03.017Z,9.97
2018-05-02T01:55:31.171Z,9.99
2018-05-02T01:57:59.285Z,9.96
2018-05-02T02:00:27.383Z,10.16
2018-05-02T02:02:55.524Z,10.05
2018-05-02T02:05:23.648Z,9.91
2018-05-02T02:07:51.767Z,9.95
2018-05-02T02:10:19.880Z,9.99
2018-05-02T02:12:48.001Z,10.05
2018-05-02T02:15:16.122Z,10.07
2018-05-02T02:17:45.350Z,10.05
2018-05-02T02:20:13.462Z,10.05
2018-05-02T02:22:41.596Z,9.94
2018-05-02T02:25:09.877Z,9.92
2018-05-02T02:27:38.003Z,9.90
2018-05-02T02:30:06.111Z,9.72
2018-05-02T02:32:34.226Z,9.75
2018-05-02T02:35:02.341Z,9.79
2018-05-02T02:37:30.431Z,9.75
2018-05-02T02:39:58.567Z,9.72
2018-05-02T02:42:26.684Z,9.72
2018-05-02T02:44:54.776Z,9.63
2018-05-02T02:47:22.980Z,9.57
2018-05-02T02:49:51.023Z,9.54
2018-05-02T02:52:19.118Z,9.49
2018-05-02T02:54:47.264Z,9.46
2018-05-02T02:57:15.373Z,9.56
2018-05-02T02:59:43.497Z,9.46
2018-05-02T03:02:11.636Z,9.48
2018-05-02T03:04:39.754Z,9.45
2018-05-02T03:07:07.868Z,9.38
2018-05-02T03:09:35.989Z,9.40
2018-05-02T03:12:04.104Z,9.37
2018-05-02T03:14:32.237Z,9.05
2018-05-02T03:17:00.483Z,9.15
2018-05-02T03:19:28.587Z,9.37
2018-05-02T03:21:56.706Z,9.36
2018-05-02T03:24:24.843Z,9.43
2018-05-02T03:26:52.970Z,9.32
2018-05-02T03:29:21.463Z,9.28
2018-05-02T03:31:49.591Z,9.31
2018-05-02T03:34:17.694Z,9.28
2018-05-02T03:36:45.831Z,9.21
2018-05-02T03:39:14.021Z,9.27
2018-05-02T03:41:42.130Z,9.38
2018-05-02T03:44:10.236Z,9.57
2018-05-02T03:46:38.342Z,9.37
2018-05-02T03:49:06.677Z,9.28
2018-05-02T03:51:34.779Z,9.28
2018-05-02T03:54:02.904Z,9.17
2018-05-02T03:56:31.010Z,9.18
2018-05-02T03:58:59.112Z,9.18
2018-05-02T04:01:38.887Z,9.11
2018-05-02T04:04:18.781Z,9.19
2018-05-02T04:07:15.073Z,9.19
2018-05-02T04:09:43.200Z,8.99
2018-05-02T04:12:22.166Z,9.36
2018-05-02T04:14:50.293Z,9.30
2018-05-02T04:17:18.405Z,9.22
2018-05-02T04:19:46.518Z,9.20
2018-05-02T04:22:14.628Z,9.25
2018-05-02T04:24:42.803Z,9.14
2018-05-02T04:27:11.005Z,9.37
2018-05-02T04:29:39.149Z,9.38
2018-05-02T04:32:07.257Z,9.33
2018-05-02T04:34:35.409Z,9.27
2018-05-02T04:37:03.543Z,9.28
2018-05-02T04:39:31.658Z,9.38
2018-05-02T04:41:59.781Z,9.50
2018-05-02T04:44:27.904Z,9.17
2018-05-02T04:46:56.024Z,9.60
2018-05-02T04:49:24.168Z,9.44
2018-05-02T04:51:52.259Z,9.53
2018-05-02T04:54:20.403Z,9.41
2018-05-02T04:56:48.524Z,9.54
2018-05-02T04:59:16.700Z,9.59
2018-05-02T05:01:44.821Z,9.65
2018-05-02T05:04:12.963Z,9.63
2018-05-02T05:06:41.097Z,9.58
2018-05-02T05:09:09.196Z,9.64
2018-05-02T05:11:37.325Z,9.56
2018-05-02T05:14:05.423Z,9.61
2018-05-02T05:16:33.532Z,9.74
2018-05-02T05:19:01.672Z,9.83
2018-05-02T05:21:29.827Z,9.83
2018-05-02T05:23:57.933Z,9.79
2018-05-02T05:26:26.046Z,9.97
2018-05-02T05:28:54.164Z,10.13
2018-05-02T05:31:22.277Z,10.24
2018-05-02T05:33:50.429Z,10.31
2018-05-02T05:36:18.526Z,10.32
2018-05-02T05:38:46.646Z,10.03
2018-05-02T05:41:14.781Z,10.36
2018-05-02T05:43:42.882Z,10.32
2018-05-02T05:46:11.006Z,10.24
2018-05-02T05:48:39.121Z,10.23
2018-05-02T05:51:07.223Z,10.23
2018-05-02T05:53:35.355Z,10.26
2018-05-02T05:56:03.500Z,10.57
2018-05-02T05:58:31.603Z,10.76
2018-05-02T06:00:59.711Z,10.89
2018-05-02T06:03:27.849Z,11.05
2018-05-02T06:05:55.961Z,10.81
2018-05-02T06:08:24.081Z,10.57
2018-05-02T06:10:52.190Z,10.62
2018-05-02T06:13:20.325Z,10.62
2018-05-02T06:15:48.423Z,10.80
2018-05-02T06:18:16.565Z,10.80
2018-05-02T06:20:44.691Z,10.73
2018-05-02T06:23:13.658Z,10.72
2018-05-02T06:25:41.780Z,10.96
2018-05-02T06:28:09.906Z,11.15
2018-05-02T06:30:38.011Z,11.09
2018-05-02T06:33:06.161Z,10.87
2018-05-02T06:35:34.259Z,11.03
2018-05-02T06:38:02.382Z,11.24
2018-05-02T06:40:30.509Z,11.42
2018-05-02T06:42:58.608Z,11.59
2018-05-02T06:45:26.728Z,11.58
2018-05-02T06:47:55.008Z,11.52
2018-05-02T06:50:23.211Z,11.85
2018-05-02T06:52:51.230Z,11.77
2018-05-02T06:55:19.357Z,11.89
2018-05-02T06:57:47.481Z,12.19
2018-05-02T07:00:16.043Z,12.26
2018-05-02T07:02:44.155Z,12.22
2018-05-02T07:05:12.295Z,12.31
2018-05-02T07:07:40.404Z,12.15
2018-05-02T07:10:08.534Z,12.31
2018-05-02T07:12:36.653Z,12.34
2018-05-02T07:15:04.769Z,12.37
2018-05-02T07:17:32.891Z,12.34
2018-05-02T07:20:01.011Z,12.51
2018-05-02T07:22:29.120Z,12.41
2018-05-02T07:24:57.245Z,12.50
2018-05-02T07:27:25.365Z,12.51
2018-05-02T07:29:53.493Z,12.55
2018-05-02T07:32:21.610Z,12.52
2018-05-02T07:34:49.728Z,12.53
2018-05-02T07:37:17.841Z,12.51
2018-05-02T07:39:45.989Z,12.61
2018-05-02T07:42:14.135Z,12.58
2018-05-02T07:44:42.212Z,12.54
2018-05-02T07:47:10.338Z,12.66
2018-05-02T07:49:38.484Z,12.65
2018-05-02T07:52:06.587Z,12.71
2018-05-02T07:54:34.735Z,12.83
2018-05-02T07:57:02.875Z,12.87
2018-05-02T07:59:30.977Z,12.92
2018-05-02T08:01:59.100Z,12.93
2018-05-02T08:04:27.218Z,12.98
2018-05-02T08:06:55.326Z,12.98
2018-05-02T08:09:23.468Z,12.98
2018-05-02T08:11:51.582Z,12.98
2018-05-02T08:14:19.776Z,13.19
2018-05-02T08:16:47.916Z,13.39
2018-05-02T08:19:16.047Z,13.31
2018-05-02T08:21:44.178Z,13.35
2018-05-02T08:24:12.297Z,13.45
2018-05-02T08:26:40.425Z,13.54
2018-05-02T08:29:08.518Z,13.61
2018-05-02T08:31:36.914Z,13.64
2018-05-02T08:34:04.965Z,13.75
2018-05-02T08:36:33.085Z,13.71
2018-05-02T08:39:01.237Z,13.71
2018-05-02T08:41:29.360Z,13.74
2018-05-02T08:43:57.488Z,13.75
2018-05-02T08:46:25.613Z,13.85
2018-05-02T08:48:53.729Z,14.03
2018-05-02T08:51:22.051Z,13.94
2018-05-02T08:53:50.189Z,14.01
2018-05-02T08:56:18.301Z,14.04
2018-05-02T08:58:46.411Z,14.16
2018-05-02T09:01:14.522Z,14.24
2018-05-02T09:03:42.715Z,14.37
2018-05-02T09:06:10.761Z,14.35
2018-05-02T09:08:38.896Z,14.41
2018-05-02T09:11:07.017Z,14.46
2018-05-02T09:13:35.145Z,14.46
2018-05-02T09:16:03.428Z,14.58
2018-05-02T09:18:31.544Z,14.65
2018-05-02T09:20:59.682Z,14.58
2018-05-02T09:23:27.809Z,14.69
2018-05-02T09:25:55.978Z,14.84
2018-05-02T09:28:24.282Z,14.95
2018-05-02T09:30:52.431Z,14.91
2018-05-02T09:33:20.531Z,14.92
2018-05-02T09:35:48.636Z,14.86
2018-05-02T09:38:16.760Z,14.81
2018-05-02T09:40:44.881Z,14.70
2018-05-02T09:43:13.000Z,14.85
2018-05-02T09:45:44.447Z,14.89
2018-05-02T09:48:12.572Z,15.06
2018-05-02T09:50:40.684Z,15.24
2018-05-02T09:53:08.818Z,15.45
2018-05-02T09:55:36.933Z,15.70
2018-05-02T09:58:05.072Z,15.74
2018-05-02T10:00:33.198Z,15.83
2018-05-02T10:03:01.317Z,15.44
2018-05-02T10:05:29.431Z,15.19
2018-05-02T10:07:57.548Z,15.11
2018-05-02T10:10:25.685Z,15.09
2018-05-02T10:12:53.800Z,15.15
2018-05-02T10:15:21.956Z,15.23
2018-05-02T10:17:50.056Z,15.45
2018-05-02T10:20:18.182Z,15.50
2018-05-02T10:22:46.323Z,15.47
2018-05-02T10:25:14.428Z,15.57
2018-05-02T10:27:42.558Z,15.47
2018-05-02T10:30:10.680Z,15.33
2018-05-02T10:32:38.792Z,15.42
2018-05-02T10:35:06.914Z,15.52
2018-05-02T10:37:35.057Z,15.60
2018-05-02T10:40:03.176Z,15.62
2018-05-02T10:42:31.296Z,15.69
2018-05-02T10:44:59.440Z,15.68
2018-05-02T10:47:27.554Z,15.74
2018-05-02T10:49:55.657Z,15.91
2018-05-02T10:52:23.792Z,15.82
2018-05-02T10:54:51.916Z,15.78
2018-05-02T10:57:20.024Z,15.89
2018-05-02T10:59:48.135Z,15.92
2018-05-02T11:02:16.239Z,15.94
2018-05-02T11:04:44.347Z,15.82
2018-05-02T11:07:12.482Z,15.86
2018-05-02T11:09:40.605Z,15.94
2018-05-02T11:12:08.738Z,16.02
2018-05-02T11:14:36.845Z,16.08
2018-05-02T11:17:04.946Z,16.33
2018-05-02T11:19:33.062Z,16.32
2018-05-02T11:22:01.230Z,16.25
2018-05-02T11:24:29.327Z,16.48
2018-05-02T11:26:57.439Z,16.57
2018-05-02T11:29:25.584Z,16.57
2018-05-02T11:31:53.693Z,16.65
2018-05-02T11:34:21.817Z,16.53
2018-05-02T11:36:49.930Z,16.67
2018-05-02T11:39:18.177Z,16.82
2018-05-02T11:41:46.309Z,16.94
2018-05-02T11:44:14.415Z,16.95
2018-05-02T11:46:42.521Z,17.14
2018-05-02T11:49:10.642Z,17.32
2018-05-02T11:51:38.788Z,17.52
2018-05-02T11:54:06.906Z,17.47
2018-05-02T11:56:35.007Z,17.51
2018-05-02T11:59:03.188Z,17.42
2018-05-02T12:01:31.319Z,17.53
2018-05-02T12:03:59.433Z,17.74
2018-05-02T12:06:27.575Z,17.98
2018-05-02T12:08:55.674Z,18.01
2018-05-02T12:11:23.840Z,17.99
2018-05-02T12:13:51.967Z,17.99
2018-05-02T12:16:20.091Z,18.06
2018-05-02T12:18:48.219Z,18.04
2018-05-02T12:21:16.346Z,18.03
2018-05-02T12:23:44.468Z,18.05
2018-05-02T12:26:12.570Z,18.20
2018-05-02T12:28:40.722Z,18.28
2018-05-02T12:31:08.829Z,18.44
2018-05-02T12:33:36.974Z,18.49
2018-05-02T12:36:05.091Z,18.39
2018-05-02T12:38:33.191Z,18.48
2018-05-02T12:41:01.299Z,18.55
2018-05-02T12:43:29.428Z,18.56
2018-05-02T12:45:57.524Z,18.61
2018-05-02T12:48:25.664Z,18.63
2018-05-02T12:50:53.778Z,18.69
2018-05-02T12:53:21.901Z,18.59
2018-05-02T12:55:50.005Z,18.72
2018-05-02T12:58:18.123Z,18.75
2018-05-02T13:00:46.257Z,18.73
2018-05-02T13:03:14.365Z,18.71
2018-05-02T13:05:42.513Z,18.69
2018-05-02T13:08:10.627Z,18.83
2018-05-02T13:10:38.811Z,18.91
2018-05-02T13:13:16.630Z,18.65
2018-05-02T13:15:46.488Z,18.64
2018-05-02T13:18:14.612Z,18.85
2018-05-02T13:20:42.739Z,19.00
2018-05-02T13:23:10.843Z,18.78
2018-05-02T13:25:38.965Z,18.81
2018-05-02T13:28:07.083Z,18.76
2018-05-02T13:30:35.202Z,18.81
2018-05-02T13:33:03.402Z,18.87
2018-05-02T13:35:31.423Z,18.93
2018-05-02T13:37:59.531Z,18.86
2018-05-02T13:40:27.634Z,18.75
2018-05-02T13:42:55.747Z,18.74
2018-05-02T13:45:23.893Z,18.78
2018-05-02T13:47:52.006Z,18.86
2018-05-02T13:50:20.147Z,18.90
2018-05-02T13:52:48.283Z,18.82
2018-05-02T13:55:16.550Z,18.92
2018-05-02T13:57:44.725Z,18.76
2018-05-02T14:00:12.844Z,18.76
2018-05-02T14:02:40.953Z,18.76
2018-05-02T14:05:09.070Z,18.71
2018-05-02T14:07:37.197Z,18.80
2018-05-02T14:10:05.321Z,18.87
2018-05-02T14:12:33.452Z,18.80
2018-05-02T14:15:01.589Z,18.65
2018-05-02T14:17:29.701Z,18.78
2018-05-02T14:19:57.844Z,18.83
2018-05-02T14:22:25.961Z,18.92
2018-05-02T14:24:54.058Z,18.96
2018-05-02T14:27:22.205Z,19.05
2018-05-02T14:29:50.309Z,19.13
2018-05-02T14:32:18.408Z,19.05
2018-05-02T14:34:46.545Z,19.03
2018-05-02T14:37:14.660Z,18.99
2018-05-02T14:39:42.796Z,18.98
2018-05-02T14:42:10.929Z,19.05
2018-05-02T14:44:39.157Z,19.11
2018-05-02T14:47:07.288Z,19.21
2018-05-02T14:49:35.436Z,19.24
2018-05-02T14:52:03.530Z,19.23
2018-05-02T14:54:31.678Z,19.11
2018-05-02T14:56:59.790Z,19.26
2018-05-02T14:59:27.901Z,19.13
2018-05-02T15:01:56.021Z,19.07
2018-05-02T15:04:24.136Z,19.13
2018-05-02T15:06:52.264Z,19.13
2018-05-02T15:09:20.424Z,19.14
2018-05-02T15:11:48.722Z,19.17
2018-05-02T15:14:16.838Z,19.07
2018-05-02T15:16:44.936Z,19.11
2018-05-02T15:19:13.212Z,19.11
2018-05-02T15:21:41.328Z,19.03
2018-05-02T15:24:09.432Z,18.97
2018-05-02T15:26:37.573Z,19.03
2018-05-02T15:29:05.686Z,19.11
2018-05-02T15:31:33.786Z,19.06
2018-05-02T15:34:01.938Z,19.05
2018-05-02T15:36:30.076Z,18.93
2018-05-02T15:38:58.170Z,19.00
2018-05-02T15:41:26.318Z,19.03
2018-05-02T15:43:54.442Z,19.03
2018-05-02T15:46:22.556Z,19.22
2018-05-02T15:48:50.705Z,19.18
2018-05-02T15:51:18.835Z,19.13
2018-05-02T15:53:46.931Z,19.16
2018-05-02T15:56:15.140Z,19.07
2018-05-02T15:58:43.185Z,19.12
2018-05-02T16:01:11.305Z,19.11
2018-05-02T16:03:39.433Z,19.15
2018-05-02T16:06:07.549Z,18.99
2018-05-02T16:08:35.670Z,19.04
2018-05-02T16:11:03.779Z,19.07
2018-05-02T16:13:31.890Z,19.12
2018-05-02T16:15:59.992Z,19.07
2018-05-02T16:18:28.103Z,19.06
2018-05-02T16:20:56.302Z,19.02
2018-05-02T16:23:24.440Z,19.05
2018-05-02T16:25:52.551Z,19.06
2018-05-02T16:28:20.669Z,18.96
2018-05-02T16:30:48.793Z,18.91
2018-05-02T16:33:17.005Z,18.98
2018-05-02T16:35:45.035Z,18.95
2018-05-02T16:38:13.168Z,18.97
2018-05-02T16:40:41.300Z,18.95
2018-05-02T16:43:09.409Z,18.93
2018-05-02T16:45:37.525Z,19.02
2018-05-02T16:48:05.657Z,19.01
2018-05-02T16:50:33.773Z,18.91
2018-05-02T16:53:01.896Z,18.90
2018-05-02T16:55:30.009Z,18.89
2018-05-02T16:57:58.152Z,18.79
2018-05-02T17:00:26.245Z,18.78
2018-05-02T17:02:54.383Z,18.73
2018-05-02T17:05:22.522Z,18.76
2018-05-02T17:07:50.621Z,18.73
2018-05-02T17:10:18.882Z,18.72
2018-05-02T17:12:46.881Z,18.66
2018-05-02T17:15:15.001Z,18.72
2018-05-02T17:17:43.151Z,18.71
2018-05-02T17:20:11.271Z,18.66
2018-05-02T17:22:39.363Z,18.69
2018-05-02T17:25:07.508Z,18.69
2018-05-02T17:27:35.621Z,18.71
2018-05-02T17:30:03.796Z,18.69
2018-05-02T17:32:31.874Z,18.61
2018-05-02T17:34:59.976Z,18.52
2018-05-02T17:37:28.093Z,18.47
2018-05-02T17:39:56.251Z,18.44
2018-05-02T17:42:24.347Z,18.45
2018-05-02T17:44:52.458Z,18.43
2018-05-02T17:47:20.811Z,18.41
2018-05-02T17:49:48.929Z,18.41
2018-05-02T17:52:17.074Z,18.32
2018-05-02T17:54:45.212Z,18.31
2018-05-02T17:57:13.330Z,18.29
2018-05-02T17:59:41.428Z,18.29
2018-05-02T18:02:09.551Z,18.29
2018-05-02T18:04:37.681Z,18.26
2018-05-02T18:07:05.828Z,18.18
2018-05-02T18:09:33.939Z,18.20
2018-05-02T18:12:02.072Z,18.08
2018-05-02T18:14:33.131Z,18.13
2018-05-02T18:17:01.318Z,18.06
2018-05-02T18:19:29.452Z,17.99
2018-05-02T18:21:57.569Z,18.00
2018-05-02T18:24:25.734Z,18.01
2018-05-02T18:26:53.839Z,17.97
2018-05-02T18:29:21.966Z,18.00
2018-05-02T18:31:50.114Z,17.92
2018-05-02T18:34:18.211Z,17.86
2018-05-02T18:36:46.318Z,17.87
2018-05-02T18:39:14.655Z,17.81
2018-05-02T18:41:42.762Z,17.72
2018-05-02T18:44:10.885Z,17.67
2018-05-02T18:46:39.232Z,17.59
2018-05-02T18:49:07.366Z,17.58
2018-05-02T18:51:35.473Z,17.55
2018-05-02T18:54:03.689Z,17.58
2018-05-02T18:56:35.537Z,17.57
2018-05-02T18:59:03.642Z,17.51
2018-05-02T19:01:31.799Z,17.51
2018-05-02T19:03:59.913Z,17.54
2018-05-02T19:06:28.010Z,17.52
2018-05-02T19:08:56.131Z,17.46
2018-05-02T19:11:24.249Z,17.43
2018-05-02T19:13:57.920Z,17.45
2018-05-02T19:16:26.048Z,17.40
2018-05-02T19:18:59.954Z,17.38
2018-05-02T19:21:28.066Z,17.35
2018-05-02T19:23:56.200Z,17.32
2018-05-02T19:26:29.889Z,17.22
2018-05-02T19:28:58.036Z,17.23
2018-05-02T19:31:33.875Z,17.16
2018-05-02T19:34:02.008Z,17.14
2018-05-02T19:36:30.226Z,17.00
2018-05-02T19:38:58.379Z,17.00
2018-05-02T19:41:32.136Z,16.96
2018-05-02T19:44:04.841Z,16.86
2018-05-02T19:46:32.983Z,16.82
2018-05-02T19:49:01.088Z,16.77
2018-05-02T19:51:34.881Z,16.71
2018-05-02T19:54:02.974Z,16.63
2018-05-02T19:56:31.092Z,16.68
2018-05-02T19:58:59.232Z,16.55
2018-05-02T20:01:32.889Z,16.58
2018-05-02T20:04:01.033Z,16.49
2018-05-02T20:06:29.169Z,16.50
2018-05-02T20:09:06.039Z,16.44
2018-05-02T20:11:39.719Z,16.45
2018-05-02T20:14:07.908Z,16.41
2018-05-02T20:16:36.025Z,16.43
2018-05-02T20:19:04.207Z,16.37
2018-05-02T20:21:32.283Z,16.36
2018-05-02T20:24:00.397Z,16.33
2018-05-02T20:26:28.513Z,16.30
2018-05-02T20:28:56.648Z,16.22
2018-05-02T20:31:24.768Z,16.20
2018-05-02T20:33:52.864Z,16.23
2018-05-02T20:36:21.017Z,16.21
2018-05-02T20:38:49.118Z,16.19
2018-05-02T20:41:17.241Z,16.12
2018-05-02T20:43:45.481Z,16.08
2018-05-02T20:46:13.607Z,15.86
2018-05-02T20:48:41.746Z,15.92
2018-05-02T20:51:09.881Z,15.96
2018-05-02T20:53:38.001Z,15.93
2018-05-02T20:56:06.131Z,15.95
2018-05-02T20:58:34.250Z,15.97
2018-05-02T21:01:02.385Z,15.92
2018-05-02T21:03:30.481Z,15.82
2018-05-02T21:05:58.599Z,15.83
2018-05-02T21:08:26.725Z,15.70
2018-05-02T21:10:54.841Z,15.72
2018-05-02T21:13:22.985Z,15.69
2018-05-02T21:15:51.088Z,15.67
2018-05-02T21:18:19.271Z,15.65
2018-05-02T21:20:47.385Z,15.62
2018-05-02T21:23:15.524Z,15.58
2018-05-02T21:25:43.665Z,15.53
2018-05-02T21:28:11.796Z,15.54
2018-05-02T21:30:39.908Z,15.42
2018-05-02T21:33:08.039Z,15.47
2018-05-02T21:35:36.174Z,15.07
2018-05-02T21:38:04.278Z,15.10
2018-05-02T21:40:32.453Z,15.20
2018-05-02T21:43:00.602Z,15.21
2018-05-02T21:45:28.890Z,15.12
2018-05-02T21:47:57.300Z,15.16
2018-05-02T21:50:25.729Z,15.20
2018-05-02T21:52:53.849Z,15.07
2018-05-02T21:55:21.956Z,15.07
2018-05-02T21:57:50.096Z,15.21
2018-05-02T22:00:18.213Z,15.21
2018-05-02T22:02:46.318Z,15.37
2018-05-02T22:05:14.462Z,15.35
2018-05-02T22:07:42.562Z,15.31
2018-05-02T22:10:10.700Z,15.36
2018-05-02T22:12:38.830Z,15.31
2018-05-02T22:15:06.927Z,15.34
2018-05-02T22:17:35.048Z,15.20
2018-05-02T22:20:03.162Z,15.36
2018-05-02T22:22:31.286Z,15.45
2018-05-02T22:24:59.409Z,15.47
2018-05-02T22:27:27.523Z,15.55
2018-05-02T22:29:55.640Z,15.58
2018-05-02T22:32:23.746Z,15.64
2018-05-02T22:34:51.881Z,15.73
2018-05-02T22:37:20.011Z,15.78
2018-05-02T22:39:48.125Z,15.84
2018-05-02T22:42:16.265Z,15.74
2018-05-02T22:44:44.396Z,15.71
2018-05-02T22:47:12.487Z,15.69
2018-05-02T22:49:40.617Z,15.64
2018-05-02T22:52:08.732Z,15.72
2018-05-02T22:54:36.866Z,15.74
2018-05-02T22:57:05.021Z,15.74
2018-05-02T22:59:33.129Z,15.67
2018-05-02T23:02:01.249Z,15.67
2018-05-02T23:04:29.370Z,15.68
2018-05-02T23:06:57.546Z,15.60
2018-05-02T23:09:25.646Z,15.77
2018-05-02T23:11:53.792Z,15.65
2018-05-02T23:14:21.900Z,15.66
2018-05-02T23:16:50.016Z,15.63
2018-05-02T23:19:18.167Z,15.60
2018-05-02T23:21:46.321Z,15.74
2018-05-02T23:24:14.499Z,15.84
2018-05-02T23:26:42.651Z,15.93
2018-05-02T23:29:10.846Z,15.88
2018-05-02T23:31:38.976Z,15.75
2018-05-02T23:34:07.109Z,15.85
2018-05-02T23:36:35.266Z,15.79
2018-05-02T23:39:03.340Z,15.78
2018-05-02T23:41:31.517Z,15.88
2018-05-02T23:43:59.695Z,15.74
2018-05-02T23:46:27.824Z,15.64
2018-05-02T23:48:55.960Z,15.65
2018-05-02T23:51:24.057Z,15.74
2018-05-02T23:53:52.189Z,15.89
2018-05-02T23:56:20.304Z,15.72
2018-05-02T23:58:48.421Z,15.58
